Time;durP1;ratioP1;P1;durP2;ratioP2;P2;SDS_P1;SDS_P2;PMS_P1;PMS_P2;Temp;Humidity;BMP_temperature;BMP_pressure;BME280_temperature;BME280_humidity;BME280_pressure;Samples;Min_cycle;Max_cycle;Signal;HPM_P1;HPM_P2
2023/01/05 00:01:57;;;;;;;9.65;3.10;;;10.00;99.90;;;;;;5049743;28;20388;-83
2023/01/05 00:04:23;;;;;;;6.47;2.20;;;10.00;99.90;;;;;;5045561;28;20394;-86
2023/01/05 00:06:49;;;;;;;7.47;2.50;;;10.00;99.90;;;;;;5047167;28;20570;-86
2023/01/05 00:09:16;;;;;;;8.03;2.70;;;10.10;99.90;;;;;;5049782;28;20453;-87
2023/01/05 00:22:53;;;;;;;8.93;2.83;;;10.20;99.90;;;;;;5044575;28;20521;-86
2023/01/05 00:25:21;;;;;;;9.27;2.78;;;10.30;99.90;;;;;;5046470;28;20384;-86
2023/01/05 00:27:50;;;;;;;8.00;2.60;;;10.30;99.90;;;;;;5044378;28;20553;-85
2023/01/05 00:30:18;;;;;;;10.25;2.70;;;10.30;99.90;;;;;;5049358;28;21237;-85
2023/01/05 00:32:44;;;;;;;9.63;2.63;;;10.40;99.90;;;;;;5049022;28;20380;-86
2023/01/05 00:35:11;;;;;;;9.80;3.10;;;10.40;99.90;;;;;;5049005;28;20475;-84
2023/01/05 00:37:38;;;;;;;8.68;2.95;;;10.40;99.90;;;;;;5051402;28;20994;-85
2023/01/05 00:40:06;;;;;;;11.57;3.25;;;10.40;99.90;;;;;;5049732;28;20502;-85
2023/01/05 00:42:31;;;;;;;10.10;3.20;;;10.40;99.90;;;;;;5027328;28;20411;-86
2023/01/05 00:44:57;;;;;;;12.63;3.42;;;10.40;99.90;;;;;;5049386;28;20396;-85
2023/01/05 00:47:23;;;;;;;10.23;3.00;;;10.50;99.90;;;;;;5042257;28;20391;-86
2023/01/05 00:49:48;;;;;;;10.57;3.13;;;10.40;99.90;;;;;;5054729;28;20411;-86
2023/01/05 00:52:14;;;;;;;12.27;2.87;;;10.30;99.90;;;;;;5043648;28;20399;-86
2023/01/05 00:54:40;;;;;;;11.50;3.50;;;10.40;99.90;;;;;;5045128;28;20890;-86
2023/01/05 00:57:06;;;;;;;7.80;2.80;;;10.30;99.90;;;;;;5047439;28;21186;-86
2023/01/05 00:59:32;;;;;;;9.75;2.90;;;10.30;99.90;;;;;;5052771;28;21039;-86
2023/01/05 01:01:58;;;;;;;8.75;3.28;;;10.40;99.90;;;;;;5053285;28;20384;-84
2023/01/05 01:04:23;;;;;;;12.55;3.47;;;10.40;99.90;;;;;;5052516;28;20386;-86
2023/01/05 01:06:49;;;;;;;9.70;3.00;;;10.40;99.90;;;;;;5049886;28;20391;-86
2023/01/05 01:09:15;;;;;;;13.10;3.07;;;10.40;99.90;;;;;;5051262;28;20415;-85
2023/01/05 01:11:41;;;;;;;11.05;3.00;;;10.40;99.90;;;;;;5050067;28;20375;-85
2023/01/05 01:14:09;;;;;;;10.68;3.30;;;10.30;99.90;;;;;;5050461;28;20992;-86
2023/01/05 01:16:35;;;;;;;10.80;3.00;;;10.30;99.90;;;;;;5052182;28;20449;-84
2023/01/05 01:19:00;;;;;;;10.73;3.15;;;10.30;99.90;;;;;;5051184;28;20864;-85
2023/01/05 01:21:26;;;;;;;8.77;3.03;;;10.30;99.90;;;;;;5051141;28;20406;-86
2023/01/05 01:23:52;;;;;;;10.67;3.13;;;10.30;99.90;;;;;;5050729;28;21036;-86
2023/01/05 01:26:18;;;;;;;9.70;3.17;;;10.30;99.90;;;;;;5050745;28;20471;-87
2023/01/05 01:28:46;;;;;;;9.27;3.45;;;10.30;99.90;;;;;;5052149;28;20770;-87
2023/01/05 01:31:12;;;;;;;12.07;3.60;;;10.30;99.90;;;;;;5051428;28;20403;-86
2023/01/05 01:33:39;;;;;;;10.70;3.60;;;10.20;99.90;;;;;;5051600;28;20822;-84
2023/01/05 01:36:06;;;;;;;11.05;3.22;;;10.10;99.90;;;;;;5050714;28;20387;-86
2023/01/05 01:38:32;;;;;;;10.02;3.20;;;10.00;99.90;;;;;;5051753;28;20429;-86
2023/01/05 01:40:58;;;;;;;8.82;3.50;;;10.00;99.90;;;;;;5051101;28;20376;-84
2023/01/05 01:43:51;;;;;;;10.13;3.03;;;10.00;99.90;;;;;;5050326;28;20434;-86
2023/01/05 01:46:18;;;;;;;9.55;3.03;;;10.10;99.90;;;;;;5051714;28;20926;-89
2023/01/05 01:49:07;;;;;;;9.05;3.17;;;10.20;99.90;;;;;;5051363;28;20372;-86
2023/01/05 01:51:40;;;;;;;8.35;2.50;;;10.30;99.90;;;;;;5051627;28;20467;-86
2023/01/05 01:54:09;;;;;;;9.60;2.90;;;10.40;99.90;;;;;;5051979;28;20380;-86
2023/01/05 01:56:54;;;;;;;9.82;2.78;;;10.50;99.90;;;;;;5051621;28;20459;-84
2023/01/05 01:59:20;;;;;;;10.77;3.30;;;10.50;99.90;;;;;;5050518;28;20941;-87
2023/01/05 02:01:49;;;;;;;10.00;2.70;;;10.40;99.90;;;;;;5050606;28;20383;-85
2023/01/05 02:04:14;;;;;;;8.53;3.13;;;10.40;99.90;;;;;;5050560;28;20376;-87
2023/01/05 02:06:40;;;;;;;12.40;3.40;;;10.40;99.90;;;;;;5050370;28;20392;-87
2023/01/05 02:09:06;;;;;;;10.98;2.95;;;10.50;99.90;;;;;;5051216;28;20382;-86
2023/01/05 02:12:05;;;;;;;9.48;2.83;;;10.50;99.90;;;;;;5051980;28;20372;-87
2023/01/05 02:14:52;;;;;;;8.60;2.58;;;10.50;99.90;;;;;;5017636;28;20391;-87
2023/01/05 02:17:27;;;;;;;11.45;2.85;;;10.40;99.90;;;;;;5051561;28;20751;-87
2023/01/05 02:20:24;;;;;;;8.57;3.17;;;10.40;99.90;;;;;;5050214;28;20466;-85
2023/01/05 02:23:12;;;;;;;7.18;2.58;;;10.40;99.90;;;;;;5051355;28;20384;-85
2023/01/05 02:26:19;;;;;;;6.85;2.45;;;10.40;99.90;;;;;;5055428;28;20471;-86
2023/01/05 02:29:15;;;;;;;10.18;2.97;;;10.40;99.90;;;;;;5054926;28;20459;-85
2023/01/05 02:31:52;;;;;;;10.52;3.45;;;10.50;99.90;;;;;;5053661;28;20877;-87
2023/01/05 02:34:27;;;;;;;9.60;2.92;;;10.40;99.90;;;;;;5055705;28;20470;-87
2023/01/05 02:39:33;;;;;;;9.48;2.85;;;10.40;99.90;;;;;;5302387;23;20791;-86
2023/01/05 02:42:10;;;;;;;10.25;2.95;;;10.50;99.90;;;;;;5049496;28;20877;-85
2023/01/05 02:44:36;;;;;;;8.15;2.35;;;10.40;99.90;;;;;;5051219;28;20485;-87
2023/01/05 02:47:05;;;;;;;8.97;2.80;;;10.40;99.90;;;;;;5050905;28;20850;-86
2023/01/05 02:49:37;;;;;;;11.90;3.08;;;10.50;99.90;;;;;;5051094;28;20407;-86
2023/01/05 02:52:05;;;;;;;10.43;2.60;;;10.50;99.90;;;;;;5050660;28;20380;-86
2023/01/05 02:54:41;;;;;;;8.45;2.50;;;10.50;99.90;;;;;;5050333;28;20384;-86
2023/01/05 02:57:12;;;;;;;6.78;2.50;;;10.50;99.90;;;;;;5050560;28;20376;-87
2023/01/05 02:59:45;;;;;;;8.63;2.63;;;10.50;99.90;;;;;;5050245;28;20392;-86
2023/01/05 03:02:19;;;;;;;10.82;2.83;;;10.50;99.90;;;;;;5051679;28;20482;-86
2023/01/05 03:04:57;;;;;;;7.85;2.50;;;10.50;99.90;;;;;;5052528;28;20507;-85
2023/01/05 03:07:27;;;;;;;8.20;2.60;;;10.50;99.90;;;;;;5052473;28;20407;-87
2023/01/05 03:09:53;;;;;;;9.88;3.00;;;10.60;99.90;;;;;;5055460;28;20754;-84
2023/01/05 03:15:29;;;;;;;9.20;2.63;;;10.50;99.90;;;;;;5050707;28;20739;-86
2023/01/05 03:18:06;;;;;;;10.60;2.73;;;10.40;99.90;;;;;;5048637;28;20404;-86
2023/01/05 03:20:34;;;;;;;9.03;2.57;;;10.50;99.90;;;;;;5048414;28;20419;-84
2023/01/05 03:37:36;;;;;;;9.43;2.45;;;10.50;99.90;;;;;;5050440;28;20395;-86
2023/01/05 03:40:06;;;;;;;7.85;2.55;;;10.40;99.90;;;;;;5050997;28;20483;-87
2023/01/05 03:42:32;;;;;;;9.43;2.40;;;10.40;99.90;;;;;;5049118;28;20900;-86
2023/01/05 03:44:58;;;;;;;7.15;2.25;;;10.30;99.90;;;;;;5050835;28;20475;-86
2023/01/05 03:47:24;;;;;;;6.82;2.42;;;10.30;99.90;;;;;;5051667;28;20477;-87
2023/01/05 03:49:50;;;;;;;8.00;2.28;;;10.30;99.90;;;;;;5049773;28;20447;-87
2023/01/05 03:52:16;;;;;;;7.32;2.30;;;10.20;99.90;;;;;;5050419;28;20511;-87
2023/01/05 03:54:42;;;;;;;6.13;2.33;;;10.20;99.90;;;;;;5049403;28;20458;-87
2023/01/05 03:57:07;;;;;;;7.00;2.40;;;10.20;99.90;;;;;;5050535;28;20383;-86
2023/01/05 03:59:33;;;;;;;8.37;2.60;;;10.10;99.90;;;;;;5048867;28;20388;-86
2023/01/05 04:01:59;;;;;;;7.53;2.50;;;10.20;99.90;;;;;;5048716;28;20731;-86
2023/01/05 04:04:25;;;;;;;6.70;2.10;;;10.20;99.90;;;;;;5049746;28;20746;-86
2023/01/05 04:06:50;;;;;;;6.40;2.00;;;10.20;99.90;;;;;;5048771;28;20391;-87
2023/01/05 04:09:16;;;;;;;6.55;2.40;;;10.20;99.90;;;;;;5043798;28;20910;-86
2023/01/05 04:11:42;;;;;;;8.52;2.28;;;10.20;99.90;;;;;;5049455;28;20413;-87
2023/01/05 04:14:07;;;;;;;6.37;2.20;;;10.10;99.90;;;;;;5048826;28;20384;-87
2023/01/05 04:16:33;;;;;;;5.00;2.03;;;10.00;99.90;;;;;;5047804;28;20416;-87
2023/01/05 04:18:59;;;;;;;6.80;2.10;;;9.90;99.90;;;;;;5047172;28;20398;-86
2023/01/05 04:21:24;;;;;;;6.53;2.07;;;9.90;99.90;;;;;;5048085;28;20376;-86
2023/01/05 04:23:50;;;;;;;5.60;2.10;;;10.00;99.90;;;;;;5047642;28;20802;-87
2023/01/05 04:26:16;;;;;;;7.88;2.33;;;9.90;99.90;;;;;;5048866;28;20387;-87
2023/01/05 04:28:41;;;;;;;5.37;2.03;;;10.00;99.90;;;;;;5047288;28;20376;-86
2023/01/05 04:31:07;;;;;;;5.30;2.10;;;10.00;99.90;;;;;;5049242;28;20427;-87
2023/01/05 04:33:33;;;;;;;4.78;1.63;;;10.00;99.90;;;;;;5047892;28;20463;-87
2023/01/05 04:35:58;;;;;;;3.93;1.77;;;10.10;99.90;;;;;;5047973;28;20379;-85
2023/01/05 04:38:24;;;;;;;4.97;1.87;;;10.00;99.90;;;;;;5049128;28;20391;-87
2023/01/05 04:40:51;;;;;;;4.25;1.50;;;10.10;99.90;;;;;;5049340;28;20738;-87
2023/01/05 04:43:18;;;;;;;5.68;1.80;;;10.10;99.90;;;;;;5048022;28;20392;-87
2023/01/05 04:45:48;;;;;;;3.17;1.47;;;10.00;99.90;;;;;;5047708;28;20913;-86
2023/01/05 04:48:14;;;;;;;3.97;1.20;;;10.00;99.90;;;;;;5046991;28;20422;-87
2023/01/05 04:50:41;;;;;;;4.28;1.30;;;10.00;99.90;;;;;;5048418;28;20483;-86
2023/01/05 04:53:06;;;;;;;3.80;1.42;;;10.00;99.90;;;;;;5048801;28;20384;-86
2023/01/05 04:55:32;;;;;;;4.93;1.50;;;10.00;99.90;;;;;;5048434;28;20379;-87
2023/01/05 04:57:58;;;;;;;5.53;1.90;;;10.00;99.90;;;;;;5047696;28;20395;-87
2023/01/05 05:00:23;;;;;;;4.77;1.53;;;10.00;99.90;;;;;;5048653;28;20406;-87
2023/01/05 05:02:49;;;;;;;3.95;1.70;;;10.00;99.90;;;;;;5048040;28;20378;-87
2023/01/05 05:05:15;;;;;;;5.32;1.98;;;9.90;99.90;;;;;;5050181;28;20458;-86
2023/01/05 05:07:41;;;;;;;7.03;2.13;;;10.00;99.90;;;;;;5047631;28;20599;-84
2023/01/05 05:10:07;;;;;;;7.67;2.30;;;10.00;99.90;;;;;;5047716;28;20759;-86
2023/01/05 05:12:33;;;;;;;6.60;2.40;;;9.90;99.90;;;;;;5048131;28;20897;-86
2023/01/05 05:14:59;;;;;;;9.10;2.28;;;9.90;99.90;;;;;;5050282;28;20386;-86
2023/01/05 05:17:24;;;;;;;8.40;2.40;;;9.90;99.90;;;;;;5067603;28;20907;-85
2023/01/05 05:19:50;;;;;;;6.75;2.33;;;9.80;99.90;;;;;;5069066;28;20478;-86
2023/01/05 05:22:16;;;;;;;5.18;2.10;;;9.80;99.90;;;;;;5047208;28;20412;-87
2023/01/05 05:24:42;;;;;;;5.33;2.10;;;9.80;99.90;;;;;;5047006;28;20371;-87
2023/01/05 05:27:07;;;;;;;6.00;2.28;;;9.70;99.90;;;;;;5047350;28;20751;-86
2023/01/05 05:29:33;;;;;;;7.47;1.92;;;9.70;99.90;;;;;;5048404;28;20755;-86
2023/01/05 05:31:59;;;;;;;7.50;2.20;;;9.80;99.90;;;;;;5048201;28;20909;-87
2023/01/05 05:34:24;;;;;;;8.03;2.40;;;9.70;99.90;;;;;;5048718;28;20392;-86
2023/01/05 05:36:50;;;;;;;6.20;1.98;;;9.70;99.90;;;;;;5048782;28;20380;-87
2023/01/05 05:39:24;;;;;;;4.93;1.75;;;9.70;99.90;;;;;;5050868;28;20388;-87
2023/01/05 05:41:50;;;;;;;6.80;2.00;;;9.80;99.90;;;;;;5050305;28;20432;-87
2023/01/05 05:44:16;;;;;;;7.22;2.47;;;9.70;99.90;;;;;;5057029;28;20384;-85
2023/01/05 05:46:41;;;;;;;6.43;2.30;;;9.60;99.90;;;;;;5052364;28;20459;-82
2023/01/05 05:49:07;;;;;;;6.18;2.40;;;9.60;99.90;;;;;;5061354;28;20384;-83
2023/01/05 05:51:33;;;;;;;4.22;1.35;;;9.50;99.90;;;;;;5063108;28;20384;-83
2023/01/05 05:53:59;;;;;;;3.28;1.30;;;9.40;99.90;;;;;;5052969;28;20379;-84
2023/01/05 05:56:25;;;;;;;2.10;0.90;;;9.20;99.90;;;;;;5053715;28;20388;-86
2023/01/05 05:58:51;;;;;;;3.42;0.82;;;9.10;99.90;;;;;;5053317;28;20383;-87
2023/01/05 06:01:16;;;;;;;2.40;1.00;;;9.00;99.90;;;;;;5054287;28;20394;-84
2023/01/05 06:03:42;;;;;;;2.83;1.00;;;8.90;99.90;;;;;;5052324;28;20458;-82
2023/01/05 06:06:08;;;;;;;3.10;0.97;;;8.80;99.90;;;;;;5053206;28;20462;-84
2023/01/05 06:08:34;;;;;;;3.17;1.10;;;8.80;99.90;;;;;;5053395;28;20471;-84
2023/01/05 06:10:59;;;;;;;2.07;1.13;;;8.80;99.90;;;;;;5053419;28;20805;-82
2023/01/05 06:13:25;;;;;;;3.25;1.40;;;8.80;99.90;;;;;;5055326;28;20473;-84
2023/01/05 06:15:51;;;;;;;3.67;1.52;;;8.80;99.90;;;;;;5053860;28;20380;-85
2023/01/05 06:18:16;;;;;;;6.53;2.10;;;8.80;99.90;;;;;;5054390;28;20394;-86
2023/01/05 06:20:42;;;;;;;2.92;1.30;;;8.80;99.90;;;;;;5054168;28;20494;-86
2023/01/05 06:23:08;;;;;;;3.22;1.30;;;8.90;99.90;;;;;;5052068;28;20537;-86
2023/01/05 06:25:34;;;;;;;2.85;1.33;;;8.90;99.90;;;;;;5046864;28;20942;-88
2023/01/05 06:28:00;;;;;;;3.60;1.40;;;8.90;99.90;;;;;;5030399;28;20400;-84
2023/01/05 06:30:26;;;;;;;2.85;1.20;;;8.90;99.90;;;;;;5045577;28;20636;-85
2023/01/05 06:32:52;;;;;;;4.00;1.15;;;8.90;99.90;;;;;;5049824;28;20392;-86
2023/01/05 06:35:18;;;;;;;3.50;1.27;;;8.80;99.90;;;;;;5052589;28;20484;-88
2023/01/05 06:37:43;;;;;;;3.08;1.20;;;8.90;99.90;;;;;;5053631;28;20391;-88
2023/01/05 06:40:10;;;;;;;2.97;1.17;;;8.80;99.90;;;;;;5053683;28;20388;-87
2023/01/05 06:42:37;;;;;;;3.72;1.30;;;8.90;99.90;;;;;;5054995;28;20380;-87
2023/01/05 06:45:04;;;;;;;2.97;1.20;;;8.90;99.90;;;;;;5053546;28;20388;-86
2023/01/05 06:47:30;;;;;;;2.55;1.10;;;8.90;99.90;;;;;;5051855;28;20411;-87
2023/01/05 06:49:56;;;;;;;2.60;1.17;;;8.90;99.90;;;;;;5055260;28;20435;-87
2023/01/05 06:52:22;;;;;;;3.10;1.35;;;8.90;99.90;;;;;;5056354;28;20880;-87
2023/01/05 06:54:47;;;;;;;3.97;1.20;;;8.90;99.90;;;;;;5054699;28;20383;-88
2023/01/05 06:57:13;;;;;;;3.47;1.35;;;9.00;99.90;;;;;;5054285;28;20384;-87
2023/01/05 06:59:39;;;;;;;2.85;1.10;;;9.10;99.90;;;;;;5053057;28;20521;-85
2023/01/05 07:02:11;;;;;;;2.47;1.00;;;9.10;99.90;;;;;;5053976;28;20380;-86
2023/01/05 07:04:37;;;;;;;3.05;1.20;;;9.10;99.90;;;;;;5052180;28;20389;-86
2023/01/05 07:07:03;;;;;;;2.43;0.97;;;9.10;99.90;;;;;;5052183;28;20474;-86
2023/01/05 07:09:28;;;;;;;2.15;1.20;;;9.00;99.90;;;;;;5052062;28;20513;-86
2023/01/05 07:11:54;;;;;;;1.77;0.80;;;9.10;99.90;;;;;;5050386;28;20406;-86
2023/01/05 07:14:19;;;;;;;1.37;0.80;;;9.00;99.90;;;;;;5049410;28;20395;-87
2023/01/05 07:16:45;;;;;;;1.42;0.77;;;9.00;99.90;;;;;;5050769;28;20373;-85
2023/01/05 07:19:12;;;;;;;1.10;0.73;;;9.00;99.90;;;;;;5054238;28;20375;-86
2023/01/05 07:21:39;;;;;;;1.67;0.68;;;9.00;99.90;;;;;;5052429;28;20376;-87
2023/01/05 07:24:05;;;;;;;0.98;0.52;;;8.90;99.90;;;;;;5051250;28;21000;-87
2023/01/05 07:26:30;;;;;;;2.20;0.90;;;8.90;99.90;;;;;;5051499;28;20387;-87
2023/01/05 07:28:57;;;;;;;1.35;0.60;;;8.80;99.90;;;;;;5051084;28;20380;-86
2023/01/05 07:31:23;;;;;;;1.50;0.68;;;8.80;99.90;;;;;;5051678;28;20418;-87
2023/01/05 07:33:49;;;;;;;1.60;0.60;;;8.70;99.90;;;;;;5051993;28;20379;-87
2023/01/05 07:36:14;;;;;;;1.00;0.60;;;8.70;99.90;;;;;;5053999;28;20375;-87
2023/01/05 07:38:40;;;;;;;0.95;0.60;;;8.70;99.90;;;;;;5052022;28;20391;-86
2023/01/05 07:41:06;;;;;;;2.47;0.70;;;8.70;99.90;;;;;;5051462;28;20383;-86
2023/01/05 07:43:31;;;;;;;1.77;0.80;;;8.70;99.90;;;;;;5051053;28;20463;-86
2023/01/05 07:45:58;;;;;;;1.58;0.70;;;8.80;99.90;;;;;;5052144;28;20418;-87
2023/01/05 07:48:24;;;;;;;0.82;0.65;;;8.70;99.90;;;;;;5054249;28;20509;-87
2023/01/05 07:50:51;;;;;;;0.68;0.55;;;8.70;99.90;;;;;;5052729;28;20434;-87
2023/01/05 07:53:16;;;;;;;1.70;0.70;;;8.70;99.90;;;;;;5053432;28;20376;-86
2023/01/05 07:55:42;;;;;;;1.70;0.70;;;8.60;99.90;;;;;;5054125;28;20387;-86
2023/01/05 07:58:08;;;;;;;1.88;0.82;;;8.80;99.90;;;;;;5059763;28;20871;-87
2023/01/05 08:00:34;;;;;;;1.48;0.80;;;8.80;99.90;;;;;;5074027;28;20382;-87
2023/01/05 08:03:00;;;;;;;2.92;0.88;;;8.80;99.90;;;;;;5073694;28;20384;-86
2023/01/05 08:05:29;;;;;;;1.20;0.70;;;8.80;99.90;;;;;;5069973;28;20956;-85
2023/01/05 08:07:55;;;;;;;1.80;0.60;;;8.90;99.90;;;;;;5058828;28;20390;-88
2023/01/05 08:10:29;;;;;;;1.90;0.70;;;8.90;99.90;;;;;;5063636;28;20413;-85
2023/01/05 08:15:46;;;;;;;2.35;1.70;;;8.90;99.90;;;;;;5071691;28;21028;-85
2023/01/05 08:18:12;;;;;;;1.90;1.00;;;8.90;99.90;;;;;;5078315;28;20362;-86
2023/01/05 08:20:38;;;;;;;0.63;0.60;;;9.10;99.90;;;;;;5071543;28;20483;-86
2023/01/05 08:23:04;;;;;;;2.03;0.68;;;9.00;99.90;;;;;;5073903;28;20928;-86
2023/01/05 08:25:29;;;;;;;2.10;0.73;;;9.10;99.90;;;;;;5071542;28;20385;-82
2023/01/05 08:27:55;;;;;;;1.40;0.57;;;9.20;99.90;;;;;;5072782;28;20394;-85
2023/01/05 08:30:21;;;;;;;2.07;0.60;;;9.30;99.90;;;;;;5075353;28;20530;-86
2023/01/05 08:32:46;;;;;;;1.27;0.57;;;9.20;99.90;;;;;;5077336;28;20425;-86
2023/01/05 08:35:12;;;;;;;1.97;0.80;;;9.10;99.90;;;;;;5077820;28;20374;-85
2023/01/05 08:37:38;;;;;;;2.00;0.90;;;9.10;99.90;;;;;;5075906;28;20511;-85
2023/01/05 08:40:04;;;;;;;0.82;0.65;;;9.10;99.90;;;;;;5075214;28;20875;-84
2023/01/05 08:42:30;;;;;;;1.50;0.70;;;9.10;99.90;;;;;;5074877;28;20377;-86
2023/01/05 08:44:56;;;;;;;1.13;0.60;;;9.10;99.90;;;;;;5069435;28;20379;-85
2023/01/05 08:47:21;;;;;;;0.95;0.60;;;9.10;99.90;;;;;;5074862;28;20381;-86
2023/01/05 08:49:48;;;;;;;1.83;0.70;;;9.10;99.90;;;;;;5069379;28;20409;-85
2023/01/05 08:52:14;;;;;;;2.08;0.90;;;9.10;99.90;;;;;;5069899;28;20425;-83
2023/01/05 08:54:40;;;;;;;2.73;0.90;;;9.20;99.90;;;;;;5071507;28;20471;-84
2023/01/05 08:57:05;;;;;;;1.77;0.70;;;9.10;99.90;;;;;;5071951;28;20406;-85
2023/01/05 08:59:31;;;;;;;2.10;0.90;;;9.10;99.90;;;;;;5072644;28;20382;-85
2023/01/05 09:01:57;;;;;;;3.00;0.90;;;9.10;99.90;;;;;;5071519;28;20378;-84
2023/01/05 09:04:24;;;;;;;2.33;0.85;;;9.20;99.90;;;;;;5072132;28;20378;-84
2023/01/05 09:06:49;;;;;;;3.15;0.90;;;9.20;99.90;;;;;;5075431;28;20393;-83
2023/01/05 09:09:15;;;;;;;1.75;0.80;;;9.20;99.90;;;;;;5073443;28;20382;-83
2023/01/05 09:11:41;;;;;;;2.13;0.87;;;9.30;99.90;;;;;;5072968;28;20407;-84
2023/01/05 09:14:10;;;;;;;1.63;0.83;;;9.30;99.90;;;;;;5073751;28;20442;-86
2023/01/05 09:16:36;;;;;;;1.23;0.70;;;9.30;99.90;;;;;;5075248;28;20860;-86
2023/01/05 09:19:03;;;;;;;3.58;0.90;;;9.10;99.90;;;;;;5075592;28;20377;-85
2023/01/05 09:21:29;;;;;;;2.85;0.90;;;9.20;99.90;;;;;;5072711;28;20705;-84
2023/01/05 09:23:54;;;;;;;4.47;1.17;;;9.20;99.90;;;;;;5073848;28;20447;-84
2023/01/05 09:26:20;;;;;;;1.73;0.90;;;9.50;99.90;;;;;;5072980;28;20394;-85
2023/01/05 09:28:46;;;;;;;1.92;0.95;;;9.60;99.90;;;;;;5073835;28;20725;-85
2023/01/05 09:31:15;;;;;;;2.23;1.10;;;9.60;99.90;;;;;;5074185;28;20881;-86
2023/01/05 09:33:41;;;;;;;5.05;1.13;;;9.80;99.90;;;;;;5073061;28;20741;-85
2023/01/05 09:36:08;;;;;;;2.40;1.08;;;9.90;99.90;;;;;;5076493;28;20378;-84
2023/01/05 09:38:35;;;;;;;2.85;1.13;;;9.90;99.90;;;;;;5075889;28;20382;-86
2023/01/05 09:41:06;;;;;;;2.57;1.30;;;9.70;99.90;;;;;;5075752;28;20382;-87
2023/01/05 09:43:39;;;;;;;2.80;1.10;;;9.60;99.90;;;;;;5074340;28;20385;-86
2023/01/05 09:46:11;;;;;;;3.40;1.30;;;9.50;99.90;;;;;;5074795;28;20378;-85
2023/01/05 09:48:43;;;;;;;4.05;1.40;;;9.60;99.90;;;;;;5073106;28;20401;-84
2023/01/05 09:51:09;;;;;;;4.80;1.48;;;9.70;99.90;;;;;;5073378;28;20401;-86
2023/01/05 09:53:36;;;;;;;4.97;1.70;;;9.60;99.90;;;;;;5074535;28;20370;-87
2023/01/05 09:56:02;;;;;;;5.38;1.48;;;9.60;99.90;;;;;;5070898;28;20371;-88
2023/01/05 09:58:42;;;;;;;5.50;1.63;;;9.60;99.90;;;;;;5072172;28;20386;-85
2023/01/05 10:01:15;;;;;;;5.20;1.50;;;9.60;99.90;;;;;;5071057;28;20370;-85
2023/01/05 10:03:58;;;;;;;4.80;1.50;;;9.60;99.90;;;;;;5070970;28;20923;-88
2023/01/05 10:06:31;;;;;;;3.72;1.50;;;9.60;99.90;;;;;;5073329;28;20470;-85
2023/01/05 10:08:58;;;;;;;4.50;1.52;;;9.70;99.90;;;;;;5071447;28;20390;-89
2023/01/05 10:14:44;;;;;;;4.85;1.55;;;9.70;99.90;;;;;;5072726;28;20491;-87
2023/01/05 10:17:15;;;;;;;5.43;1.70;;;9.70;99.90;;;;;;5075747;28;20412;-86
2023/01/05 10:19:41;;;;;;;4.57;1.50;;;9.60;99.90;;;;;;5074395;28;20404;-85
2023/01/05 10:22:13;;;;;;;4.22;1.48;;;9.60;99.90;;;;;;5072945;28;20386;-85
2023/01/05 10:24:49;;;;;;;3.17;1.50;;;9.70;99.90;;;;;;5070776;28;20710;-84
2023/01/05 10:27:42;;;;;;;4.50;1.45;;;9.60;99.90;;;;;;5070845;28;20756;-87
2023/01/05 10:30:24;;;;;;;5.10;1.50;;;9.70;99.90;;;;;;5071207;28;20402;-85
2023/01/05 10:33:00;;;;;;;5.37;1.70;;;9.70;99.90;;;;;;5070450;28;20783;-86
2023/01/05 10:35:39;;;;;;;5.57;1.73;;;9.70;99.90;;;;;;5069889;28;20868;-85
2023/01/05 10:38:14;;;;;;;5.82;1.73;;;9.70;99.90;;;;;;5065119;28;20392;-85
2023/01/05 10:41:07;;;;;;;6.75;1.80;;;9.80;99.90;;;;;;5050402;28;20383;-86
2023/01/05 10:44:07;;;;;;;5.67;1.67;;;9.80;99.90;;;;;;5030978;28;20382;-84
2023/01/05 10:46:38;;;;;;;6.45;1.50;;;10.00;99.90;;;;;;5041336;28;20424;-84
2023/01/05 10:49:05;;;;;;;5.63;1.65;;;9.90;99.90;;;;;;5050796;28;20383;-84
2023/01/05 10:51:35;;;;;;;4.03;1.70;;;10.00;99.90;;;;;;5060087;28;20394;-84
2023/01/05 10:54:02;;;;;;;4.15;1.60;;;10.00;99.90;;;;;;5049132;28;20444;-84
2023/01/05 10:56:29;;;;;;;7.32;2.08;;;9.90;99.90;;;;;;5036777;28;20381;-86
2023/01/05 10:59:08;;;;;;;5.28;1.80;;;9.80;99.90;;;;;;5041168;28;20395;-86
2023/01/05 11:01:37;;;;;;;9.45;2.10;;;9.80;99.90;;;;;;5048667;28;20387;-86
2023/01/05 11:04:18;;;;;;;7.00;1.90;;;9.80;99.90;;;;;;5049491;28;20383;-86
2023/01/05 11:06:44;;;;;;;6.72;2.25;;;9.70;99.90;;;;;;5048937;28;20379;-82
2023/01/05 11:09:25;;;;;;;5.72;2.20;;;9.70;99.90;;;;;;5042702;28;20409;-84
2023/01/05 11:11:58;;;;;;;5.95;1.58;;;9.80;99.90;;;;;;5035677;28;20379;-85
2023/01/05 11:14:31;;;;;;;5.32;1.77;;;9.80;99.90;;;;;;5047269;28;20705;-84
2023/01/05 11:17:06;;;;;;;8.90;2.20;;;9.90;99.90;;;;;;5053572;28;20366;-85
2023/01/05 11:19:36;;;;;;;7.50;1.60;;;9.90;99.90;;;;;;5072107;28;20378;-83
2023/01/05 11:22:01;;;;;;;6.03;1.83;;;9.80;99.90;;;;;;5050739;28;20517;-83
2023/01/05 11:24:32;;;;;;;7.57;1.90;;;9.70;99.90;;;;;;5048976;28;20867;-83
2023/01/05 11:27:00;;;;;;;5.73;2.03;;;9.70;99.90;;;;;;5046917;28;20399;-83
2023/01/05 11:29:26;;;;;;;8.48;2.25;;;9.70;99.90;;;;;;5048802;28;20862;-84
2023/01/05 11:32:03;;;;;;;6.15;1.65;;;9.70;99.90;;;;;;5047339;28;20376;-84
2023/01/05 11:34:48;;;;;;;5.45;2.05;;;9.80;99.90;;;;;;5049279;28;20376;-83
2023/01/05 11:37:24;;;;;;;6.57;1.70;;;10.00;99.90;;;;;;5049832;28;20758;-85
2023/01/05 11:39:51;;;;;;;8.77;2.40;;;9.90;99.90;;;;;;5048815;28;20433;-85
2023/01/05 11:42:28;;;;;;;5.95;2.13;;;9.80;99.90;;;;;;5041809;28;20391;-84
2023/01/05 11:45:20;;;;;;;4.05;1.45;;;9.80;99.90;;;;;;5038799;28;20393;-84
2023/01/05 11:48:07;;;;;;;7.22;1.90;;;9.80;99.90;;;;;;5062442;28;20389;-85
2023/01/05 11:50:41;;;;;;;5.55;1.65;;;9.80;99.90;;;;;;5039553;28;20403;-84
2023/01/05 11:53:23;;;;;;;5.72;1.92;;;9.90;99.90;;;;;;5048807;28;20395;-83
2023/01/05 11:56:24;;;;;;;5.50;1.70;;;9.90;99.90;;;;;;5049498;28;20462;-84
2023/01/05 11:58:53;;;;;;;5.30;1.70;;;10.00;99.90;;;;;;5035887;28;20395;-84
2023/01/05 12:01:48;;;;;;;4.82;1.80;;;10.00;99.90;;;;;;5048544;28;20873;-83
2023/01/05 12:04:38;;;;;;;4.65;1.77;;;10.00;99.90;;;;;;5043571;28;20466;-83
2023/01/05 12:07:20;;;;;;;4.97;1.80;;;10.00;99.90;;;;;;5050100;28;20384;-82
2023/01/05 12:10:15;;;;;;;6.28;1.90;;;9.90;99.90;;;;;;5047606;28;20430;-85
2023/01/05 12:13:01;;;;;;;5.55;2.13;;;9.90;99.90;;;;;;5047422;28;20403;-84
2023/01/05 12:15:33;;;;;;;7.03;1.77;;;10.00;99.90;;;;;;5048422;28;20379;-83
2023/01/05 12:18:13;;;;;;;6.40;1.77;;;10.10;99.90;;;;;;5037233;28;20435;-84
2023/01/05 12:20:51;;;;;;;5.80;2.00;;;10.20;99.90;;;;;;5048496;28;20387;-85
2023/01/05 12:23:57;;;;;;;6.17;1.93;;;10.10;99.90;;;;;;5049563;28;20466;-83
2023/01/05 12:26:31;;;;;;;7.10;1.60;;;10.10;99.90;;;;;;5034085;28;20896;-83
2023/01/05 12:29:24;;;;;;;4.15;1.60;;;10.10;99.90;;;;;;5046413;28;20609;-85
2023/01/05 12:32:05;;;;;;;5.47;1.67;;;10.10;99.90;;;;;;5039463;28;20393;-84
2023/01/05 12:35:05;;;;;;;5.90;1.73;;;10.10;99.90;;;;;;5027881;28;20718;-83
2023/01/05 12:37:30;;;;;;;8.02;1.58;;;10.10;99.90;;;;;;5038302;28;20410;-86
2023/01/05 12:39:59;;;;;;;6.45;1.90;;;10.10;99.90;;;;;;5046743;28;20400;-83
2023/01/05 12:42:55;;;;;;;4.45;1.63;;;10.10;99.90;;;;;;5047978;28;20371;-84
2023/01/05 12:46:01;;;;;;;5.70;1.70;;;10.10;99.90;;;;;;5029223;28;20461;-85
2023/01/05 12:48:41;;;;;;;4.63;1.67;;;10.00;99.90;;;;;;5027358;28;20461;-84
2023/01/05 12:51:39;;;;;;;5.30;1.60;;;10.00;99.90;;;;;;5055443;28;20908;-84
2023/01/05 12:54:27;;;;;;;4.70;2.08;;;9.90;99.90;;;;;;5043157;28;20381;-84
2023/01/05 12:56:59;;;;;;;4.20;1.50;;;10.00;99.90;;;;;;5034038;28;20381;-82
2023/01/05 12:59:39;;;;;;;5.07;1.70;;;10.10;99.90;;;;;;5035220;28;20388;-87
2023/01/05 13:02:19;;;;;;;5.53;1.60;;;10.10;99.90;;;;;;5037505;28;20405;-83
2023/01/05 13:05:11;;;;;;;9.05;2.20;;;10.00;99.90;;;;;;5037790;28;20410;-84
2023/01/05 13:08:09;;;;;;;5.93;1.80;;;10.00;99.90;;;;;;5056165;28;20375;-85
2023/01/05 13:10:53;;;;;;;6.32;1.73;;;10.00;99.90;;;;;;5035406;28;20440;-83
2023/01/05 13:13:26;;;;;;;4.40;1.60;;;10.00;99.90;;;;;;5045073;28;20372;-85
2023/01/05 13:16:12;;;;;;;5.47;1.73;;;10.00;99.90;;;;;;5042123;28;20409;-85
2023/01/05 13:18:45;;;;;;;5.53;1.80;;;10.00;99.90;;;;;;5036677;28;20500;-82
2023/01/05 13:21:12;;;;;;;6.65;1.88;;;10.00;99.90;;;;;;5048383;28;20474;-84
2023/01/05 13:23:51;;;;;;;4.80;1.60;;;10.10;99.90;;;;;;5068715;28;20394;-83
2023/01/05 13:26:20;;;;;;;5.80;1.50;;;10.10;99.90;;;;;;5056613;28;20399;-84
2023/01/05 13:28:52;;;;;;;6.65;1.83;;;10.20;99.90;;;;;;5051256;28;20398;-80
2023/01/05 13:31:35;;;;;;;4.93;1.67;;;10.10;99.90;;;;;;5041019;28;20403;-86
2023/01/05 13:34:07;;;;;;;6.63;1.85;;;10.10;99.90;;;;;;5052443;28;20437;-84
2023/01/05 13:37:08;;;;;;;6.00;1.98;;;10.00;99.90;;;;;;5053534;28;20380;-84
2023/01/05 13:39:37;;;;;;;7.78;1.95;;;10.10;99.90;;;;;;5053911;28;20457;-83
2023/01/05 13:42:10;;;;;;;7.93;2.35;;;10.10;99.90;;;;;;5053362;28;20393;-82
2023/01/05 13:45:06;;;;;;;6.87;1.83;;;10.00;99.90;;;;;;5053702;28;20415;-84
2023/01/05 13:47:48;;;;;;;7.20;1.77;;;9.90;99.90;;;;;;5054187;28;20415;-85